sensor_id;sensor_type;location;lat;lon;timestamp;P1;durP1;ratioP1;P2;durP2;ratioP2
43413;SDS011;29013;49.676;8.606;2023-02-15T00:01:15;45.82;;;14.23;;
43413;SDS011;29013;49.676;8.606;2023-02-15T00:06:39;34.58;;;12.3;;
43413;SDS011;29013;49.676;8.606;2023-02-15T00:12:01;34.3;;;12.95;;
43413;SDS011;29013;49.676;8.606;2023-02-15T00:17:23;34.8;;;12.13;;
43413;SDS011;29013;49.676;8.606;2023-02-15T00:22:47;41.83;;;12.56;;
43413;SDS011;29013;49.676;8.606;2023-02-15T00:28:06;24.14;;;11.29;;
43413;SDS011;29013;49.676;8.606;2023-02-15T00:33:30;23.57;;;11.38;;
43413;SDS011;29013;49.676;8.606;2023-02-15T00:38:54;18.5;;;9.79;;
43413;SDS011;29013;49.676;8.606;2023-02-15T00:44:13;21.27;;;9.92;;
43413;SDS011;29013;49.676;8.606;2023-02-15T00:49:51;21.69;;;11.05;;
43413;SDS011;29013;49.676;8.606;2023-02-15T00:55:15;20.82;;;10.32;;
43413;SDS011;29013;49.676;8.606;2023-02-15T01:01:04;18.7;;;10.46;;
43413;SDS011;29013;49.676;8.606;2023-02-15T01:06:24;17.65;;;10.17;;
43413;SDS011;29013;49.676;8.606;2023-02-15T01:11:49;20.49;;;10.66;;
43413;SDS011;29013;49.676;8.606;2023-02-15T01:17:12;17.25;;;9.63;;
43413;SDS011;29013;49.676;8.606;2023-02-15T01:22:33;19.65;;;10.4;;
43413;SDS011;29013;49.676;8.606;2023-02-15T01:27:55;17.09;;;9.34;;
43413;SDS011;29013;49.676;8.606;2023-02-15T01:33:18;15.82;;;9.66;;
43413;SDS011;29013;49.676;8.606;2023-02-15T01:38:49;19.46;;;10.09;;
43413;SDS011;29013;49.676;8.606;2023-02-15T01:50:08;17.56;;;9.35;;
43413;SDS011;29013;49.676;8.606;2023-02-15T01:55:32;19.46;;;10.27;;
43413;SDS011;29013;49.676;8.606;2023-02-15T02:00:56;22.32;;;11.36;;
43413;SDS011;29013;49.676;8.606;2023-02-15T02:06:20;22.19;;;10.37;;
43413;SDS011;29013;49.676;8.606;2023-02-15T02:12:12;25.2;;;15.09;;
43413;SDS011;29013;49.676;8.606;2023-02-15T02:18:00;23.39;;;11.66;;
43413;SDS011;29013;49.676;8.606;2023-02-15T02:23:27;19.73;;;10.92;;
43413;SDS011;29013;49.676;8.606;2023-02-15T02:34:46;18.64;;;9.76;;
43413;SDS011;29013;49.676;8.606;2023-02-15T02:40:10;19.42;;;9.54;;
43413;SDS011;29013;49.676;8.606;2023-02-15T02:45:30;21.55;;;10.36;;
43413;SDS011;29013;49.676;8.606;2023-02-15T02:50:53;18.61;;;9.25;;
43413;SDS011;29013;49.676;8.606;2023-02-15T02:56:20;19.56;;;10.26;;
43413;SDS011;29013;49.676;8.606;2023-02-15T03:02:03;22.9;;;11.1;;
43413;SDS011;29013;49.676;8.606;2023-02-15T03:07:25;21.88;;;10.79;;
43413;SDS011;29013;49.676;8.606;2023-02-15T03:12:48;19.61;;;10.32;;
43413;SDS011;29013;49.676;8.606;2023-02-15T03:18:13;22.25;;;10.26;;
43413;SDS011;29013;49.676;8.606;2023-02-15T03:23:38;22.16;;;10.19;;
43413;SDS011;29013;49.676;8.606;2023-02-15T03:29:01;18.58;;;9.9;;
43413;SDS011;29013;49.676;8.606;2023-02-15T03:34:19;19.93;;;10.35;;
43413;SDS011;29013;49.676;8.606;2023-02-15T03:39:42;17.79;;;9.38;;
43413;SDS011;29013;49.676;8.606;2023-02-15T03:45:08;19.71;;;9.03;;
43413;SDS011;29013;49.676;8.606;2023-02-15T03:50:31;23.04;;;10.6;;
43413;SDS011;29013;49.676;8.606;2023-02-15T03:55:49;22.37;;;9.18;;
43413;SDS011;29013;49.676;8.606;2023-02-15T04:01:09;16.41;;;8.77;;
43413;SDS011;29013;49.676;8.606;2023-02-15T04:06:27;16.88;;;8.25;;
43413;SDS011;29013;49.676;8.606;2023-02-15T04:11:50;13.68;;;7.67;;
43413;SDS011;29013;49.676;8.606;2023-02-15T04:17:14;12.31;;;7.14;;
43413;SDS011;29013;49.676;8.606;2023-02-15T04:22:37;16.44;;;8.85;;
43413;SDS011;29013;49.676;8.606;2023-02-15T04:28:02;13.86;;;7.8;;
43413;SDS011;29013;49.676;8.606;2023-02-15T04:33:28;15.15;;;8.4;;
43413;SDS011;29013;49.676;8.606;2023-02-15T04:38:52;16.18;;;8.49;;
43413;SDS011;29013;49.676;8.606;2023-02-15T04:44:14;24.65;;;8.44;;
43413;SDS011;29013;49.676;8.606;2023-02-15T04:49:59;15.29;;;8.3;;
43413;SDS011;29013;49.676;8.606;2023-02-15T04:55:44;20.75;;;10.3;;
43413;SDS011;29013;49.676;8.606;2023-02-15T05:01:30;22.06;;;10.03;;
43413;SDS011;29013;49.676;8.606;2023-02-15T05:06:54;20.19;;;9.87;;
43413;SDS011;29013;49.676;8.606;2023-02-15T05:12:18;21.68;;;9.51;;
43413;SDS011;29013;49.676;8.606;2023-02-15T05:17:40;21.25;;;9.76;;
43413;SDS011;29013;49.676;8.606;2023-02-15T05:23:19;24.58;;;10.78;;
43413;SDS011;29013;49.676;8.606;2023-02-15T05:28:57;24.24;;;11.11;;
43413;SDS011;29013;49.676;8.606;2023-02-15T05:34:20;22.14;;;10.46;;
43413;SDS011;29013;49.676;8.606;2023-02-15T05:39:47;21.92;;;10.04;;
43413;SDS011;29013;49.676;8.606;2023-02-15T05:45:05;21.14;;;10.99;;
43413;SDS011;29013;49.676;8.606;2023-02-15T05:50:29;21.64;;;9.68;;
43413;SDS011;29013;49.676;8.606;2023-02-15T05:55:49;24.69;;;10.72;;
43413;SDS011;29013;49.676;8.606;2023-02-15T06:01:10;21.71;;;10.08;;
43413;SDS011;29013;49.676;8.606;2023-02-15T06:06:33;24.97;;;11.23;;
43413;SDS011;29013;49.676;8.606;2023-02-15T06:11:57;22.23;;;10.03;;
43413;SDS011;29013;49.676;8.606;2023-02-15T06:17:20;21.98;;;10.68;;
43413;SDS011;29013;49.676;8.606;2023-02-15T06:23:07;25.09;;;11.54;;
43413;SDS011;29013;49.676;8.606;2023-02-15T06:28:28;23.26;;;11.2;;
43413;SDS011;29013;49.676;8.606;2023-02-15T06:33:53;24.18;;;10.32;;
43413;SDS011;29013;49.676;8.606;2023-02-15T06:39:34;24.17;;;11.14;;
43413;SDS011;29013;49.676;8.606;2023-02-15T06:44:57;24.38;;;11.3;;
43413;SDS011;29013;49.676;8.606;2023-02-15T06:50:21;19.5;;;9.55;;
43413;SDS011;29013;49.676;8.606;2023-02-15T06:55:45;18.7;;;9.51;;
43413;SDS011;29013;49.676;8.606;2023-02-15T07:01:47;21.84;;;10.56;;
43413;SDS011;29013;49.676;8.606;2023-02-15T07:07:09;19.23;;;9.54;;
43413;SDS011;29013;49.676;8.606;2023-02-15T07:12:34;17.55;;;8.92;;
43413;SDS011;29013;49.676;8.606;2023-02-15T07:17:58;19.85;;;9.2;;
43413;SDS011;29013;49.676;8.606;2023-02-15T07:23:37;19.48;;;9.77;;
43413;SDS011;29013;49.676;8.606;2023-02-15T07:28:55;19.49;;;9.63;;
43413;SDS011;29013;49.676;8.606;2023-02-15T07:34:15;17.83;;;9.0;;
43413;SDS011;29013;49.676;8.606;2023-02-15T07:39:35;19.23;;;9.08;;
43413;SDS011;29013;49.676;8.606;2023-02-15T07:44:56;19.39;;;9.67;;
43413;SDS011;29013;49.676;8.606;2023-02-15T07:50:18;22.31;;;9.58;;
43413;SDS011;29013;49.676;8.606;2023-02-15T07:55:42;21.75;;;9.95;;
43413;SDS011;29013;49.676;8.606;2023-02-15T08:01:00;17.53;;;8.22;;
43413;SDS011;29013;49.676;8.606;2023-02-15T08:06:42;22.16;;;10.94;;
43413;SDS011;29013;49.676;8.606;2023-02-15T08:12:00;21.57;;;10.55;;
43413;SDS011;29013;49.676;8.606;2023-02-15T08:17:25;15.63;;;7.73;;
43413;SDS011;29013;49.676;8.606;2023-02-15T08:23:10;17.49;;;9.35;;
43413;SDS011;29013;49.676;8.606;2023-02-15T08:28:33;17.16;;;8.76;;
43413;SDS011;29013;49.676;8.606;2023-02-15T08:33:52;20.72;;;9.4;;
43413;SDS011;29013;49.676;8.606;2023-02-15T08:39:15;19.72;;;9.49;;
43413;SDS011;29013;49.676;8.606;2023-02-15T08:44:33;17.89;;;9.23;;
43413;SDS011;29013;49.676;8.606;2023-02-15T08:49:55;16.68;;;9.1;;
43413;SDS011;29013;49.676;8.606;2023-02-15T08:55:18;17.35;;;9.41;;
43413;SDS011;29013;49.676;8.606;2023-02-15T09:00:41;17.82;;;8.82;;
43413;SDS011;29013;49.676;8.606;2023-02-15T09:06:11;16.33;;;8.97;;
43413;SDS011;29013;49.676;8.606;2023-02-15T09:11:54;17.88;;;10.35;;
43413;SDS011;29013;49.676;8.606;2023-02-15T09:17:14;16.42;;;8.87;;
43413;SDS011;29013;49.676;8.606;2023-02-15T09:22:36;15.84;;;9.09;;
43413;SDS011;29013;49.676;8.606;2023-02-15T09:27:58;18.84;;;9.69;;
43413;SDS011;29013;49.676;8.606;2023-02-15T09:33:22;17.23;;;9.76;;
43413;SDS011;29013;49.676;8.606;2023-02-15T09:38:47;21.97;;;11.27;;
43413;SDS011;29013;49.676;8.606;2023-02-15T09:44:27;20.05;;;11.27;;
43413;SDS011;29013;49.676;8.606;2023-02-15T09:49:52;18.74;;;9.85;;
43413;SDS011;29013;49.676;8.606;2023-02-15T09:55:18;20.54;;;10.31;;
43413;SDS011;29013;49.676;8.606;2023-02-15T10:00:49;19.28;;;10.03;;
43413;SDS011;29013;49.676;8.606;2023-02-15T10:06:31;18.76;;;10.38;;
43413;SDS011;29013;49.676;8.606;2023-02-15T10:12:01;20.31;;;11.28;;
43413;SDS011;29013;49.676;8.606;2023-02-15T10:17:29;27.57;;;13.99;;
43413;SDS011;29013;49.676;8.606;2023-02-15T10:22:58;28.59;;;14.67;;
43413;SDS011;29013;49.676;8.606;2023-02-15T10:28:26;23.68;;;12.2;;
43413;SDS011;29013;49.676;8.606;2023-02-15T10:33:48;25.94;;;13.68;;
43413;SDS011;29013;49.676;8.606;2023-02-15T10:39:12;30.42;;;14.9;;
43413;SDS011;29013;49.676;8.606;2023-02-15T10:44:39;29.82;;;15.67;;
43413;SDS011;29013;49.676;8.606;2023-02-15T10:50:06;29.7;;;15.39;;
43413;SDS011;29013;49.676;8.606;2023-02-15T10:55:29;26.7;;;14.29;;
43413;SDS011;29013;49.676;8.606;2023-02-15T11:00:51;27.35;;;14.73;;
43413;SDS011;29013;49.676;8.606;2023-02-15T11:06:12;25.2;;;14.2;;
43413;SDS011;29013;49.676;8.606;2023-02-15T11:11:37;27.67;;;14.8;;
43413;SDS011;29013;49.676;8.606;2023-02-15T11:17:01;24.85;;;13.61;;
43413;SDS011;29013;49.676;8.606;2023-02-15T11:22:22;25.39;;;14.16;;
43413;SDS011;29013;49.676;8.606;2023-02-15T11:27:48;23.55;;;13.2;;
43413;SDS011;29013;49.676;8.606;2023-02-15T11:33:13;25.51;;;12.3;;
43413;SDS011;29013;49.676;8.606;2023-02-15T11:38:55;22.79;;;13.15;;
43413;SDS011;29013;49.676;8.606;2023-02-15T11:44:16;22.75;;;12.83;;
43413;SDS011;29013;49.676;8.606;2023-02-15T11:49:59;24.97;;;13.84;;
43413;SDS011;29013;49.676;8.606;2023-02-15T11:55:22;20.69;;;11.95;;
43413;SDS011;29013;49.676;8.606;2023-02-15T12:00:45;21.67;;;12.32;;
43413;SDS011;29013;49.676;8.606;2023-02-15T12:06:12;19.62;;;12.18;;
43413;SDS011;29013;49.676;8.606;2023-02-15T12:11:33;18.84;;;11.74;;
43413;SDS011;29013;49.676;8.606;2023-02-15T12:16:53;20.52;;;12.54;;
43413;SDS011;29013;49.676;8.606;2023-02-15T12:22:19;22.0;;;12.56;;
43413;SDS011;29013;49.676;8.606;2023-02-15T12:27:42;22.86;;;13.65;;
43413;SDS011;29013;49.676;8.606;2023-02-15T12:33:02;25.06;;;13.17;;
43413;SDS011;29013;49.676;8.606;2023-02-15T12:38:24;21.89;;;13.58;;
43413;SDS011;29013;49.676;8.606;2023-02-15T12:43:47;21.82;;;12.32;;
43413;SDS011;29013;49.676;8.606;2023-02-15T12:49:18;23.74;;;12.72;;
43413;SDS011;29013;49.676;8.606;2023-02-15T12:54:36;24.3;;;13.39;;
43413;SDS011;29013;49.676;8.606;2023-02-15T12:59:56;23.33;;;13.61;;
43413;SDS011;29013;49.676;8.606;2023-02-15T13:05:20;24.71;;;13.49;;
43413;SDS011;29013;49.676;8.606;2023-02-15T13:10:41;21.27;;;13.21;;
43413;SDS011;29013;49.676;8.606;2023-02-15T13:16:17;23.74;;;14.83;;
43413;SDS011;29013;49.676;8.606;2023-02-15T13:21:43;25.15;;;14.43;;
43413;SDS011;29013;49.676;8.606;2023-02-15T13:27:01;22.65;;;13.83;;
43413;SDS011;29013;49.676;8.606;2023-02-15T13:32:25;23.27;;;13.68;;
43413;SDS011;29013;49.676;8.606;2023-02-15T13:43:31;21.0;;;13.06;;
43413;SDS011;29013;49.676;8.606;2023-02-15T13:49:00;24.0;;;13.85;;
43413;SDS011;29013;49.676;8.606;2023-02-15T13:54:35;21.99;;;13.85;;
43413;SDS011;29013;49.676;8.606;2023-02-15T14:00:20;25.86;;;16.52;;
43413;SDS011;29013;49.676;8.606;2023-02-15T14:05:50;26.47;;;15.7;;
43413;SDS011;29013;49.676;8.606;2023-02-15T14:11:19;26.32;;;15.09;;
43413;SDS011;29013;49.676;8.606;2023-02-15T14:16:48;24.56;;;14.77;;
43413;SDS011;29013;49.676;8.606;2023-02-15T14:22:14;23.48;;;14.05;;
43413;SDS011;29013;49.676;8.606;2023-02-15T14:27:37;25.73;;;15.28;;
43413;SDS011;29013;49.676;8.606;2023-02-15T14:33:01;26.3;;;15.78;;
43413;SDS011;29013;49.676;8.606;2023-02-15T14:38:21;23.5;;;15.57;;
43413;SDS011;29013;49.676;8.606;2023-02-15T14:43:47;25.53;;;15.44;;
43413;SDS011;29013;49.676;8.606;2023-02-15T14:49:09;26.89;;;15.74;;
43413;SDS011;29013;49.676;8.606;2023-02-15T15:05:56;27.32;;;15.83;;
43413;SDS011;29013;49.676;8.606;2023-02-15T15:17:15;28.75;;;17.87;;
43413;SDS011;29013;49.676;8.606;2023-02-15T15:22:36;28.37;;;16.78;;
43413;SDS011;29013;49.676;8.606;2023-02-15T15:27:55;34.73;;;16.65;;
43413;SDS011;29013;49.676;8.606;2023-02-15T15:33:24;27.86;;;16.41;;
43413;SDS011;29013;49.676;8.606;2023-02-15T15:38:51;27.25;;;15.69;;
43413;SDS011;29013;49.676;8.606;2023-02-15T15:44:54;28.0;;;17.49;;
43413;SDS011;29013;49.676;8.606;2023-02-15T15:50:19;28.73;;;16.8;;
43413;SDS011;29013;49.676;8.606;2023-02-15T15:55:42;27.32;;;16.31;;
43413;SDS011;29013;49.676;8.606;2023-02-15T16:01:07;29.06;;;16.71;;
43413;SDS011;29013;49.676;8.606;2023-02-15T16:06:30;30.5;;;17.51;;
43413;SDS011;29013;49.676;8.606;2023-02-15T16:11:53;28.61;;;17.28;;
43413;SDS011;29013;49.676;8.606;2023-02-15T16:17:17;28.86;;;16.6;;
43413;SDS011;29013;49.676;8.606;2023-02-15T16:22:41;29.85;;;16.98;;
43413;SDS011;29013;49.676;8.606;2023-02-15T16:28:07;31.94;;;16.99;;
43413;SDS011;29013;49.676;8.606;2023-02-15T16:33:58;34.29;;;19.76;;
43413;SDS011;29013;49.676;8.606;2023-02-15T16:39:20;32.66;;;18.57;;
43413;SDS011;29013;49.676;8.606;2023-02-15T16:44:44;32.98;;;18.89;;
43413;SDS011;29013;49.676;8.606;2023-02-15T16:50:10;28.77;;;16.9;;
43413;SDS011;29013;49.676;8.606;2023-02-15T16:55:38;29.95;;;17.79;;
43413;SDS011;29013;49.676;8.606;2023-02-15T17:00:59;30.08;;;17.97;;
43413;SDS011;29013;49.676;8.606;2023-02-15T17:06:23;30.13;;;17.79;;
43413;SDS011;29013;49.676;8.606;2023-02-15T17:11:46;32.95;;;17.73;;
43413;SDS011;29013;49.676;8.606;2023-02-15T17:17:06;29.81;;;18.29;;
43413;SDS011;29013;49.676;8.606;2023-02-15T17:22:31;33.22;;;18.89;;
43413;SDS011;29013;49.676;8.606;2023-02-15T17:27:52;32.33;;;18.69;;
43413;SDS011;29013;49.676;8.606;2023-02-15T17:33:21;33.81;;;19.56;;
43413;SDS011;29013;49.676;8.606;2023-02-15T17:38:59;34.63;;;19.5;;
43413;SDS011;29013;49.676;8.606;2023-02-15T17:44:15;31.9;;;18.39;;
43413;SDS011;29013;49.676;8.606;2023-02-15T17:49:39;31.85;;;17.99;;
43413;SDS011;29013;49.676;8.606;2023-02-15T17:55:07;33.17;;;18.07;;
43413;SDS011;29013;49.676;8.606;2023-02-15T18:00:29;33.72;;;19.42;;
43413;SDS011;29013;49.676;8.606;2023-02-15T18:05:53;35.32;;;19.03;;
43413;SDS011;29013;49.676;8.606;2023-02-15T18:12:20;35.15;;;21.58;;
43413;SDS011;29013;49.676;8.606;2023-02-15T18:17:38;36.09;;;19.96;;
43413;SDS011;29013;49.676;8.606;2023-02-15T18:22:58;31.51;;;18.29;;
43413;SDS011;29013;49.676;8.606;2023-02-15T18:28:22;33.92;;;18.95;;
43413;SDS011;29013;49.676;8.606;2023-02-15T18:33:46;36.44;;;20.62;;
43413;SDS011;29013;49.676;8.606;2023-02-15T18:39:08;39.33;;;21.91;;
43413;SDS011;29013;49.676;8.606;2023-02-15T18:44:31;34.55;;;19.44;;
43413;SDS011;29013;49.676;8.606;2023-02-15T18:49:54;34.81;;;20.15;;
43413;SDS011;29013;49.676;8.606;2023-02-15T18:55:18;34.42;;;19.83;;
43413;SDS011;29013;49.676;8.606;2023-02-15T19:00:40;37.01;;;19.88;;
43413;SDS011;29013;49.676;8.606;2023-02-15T19:06:07;35.12;;;19.76;;
43413;SDS011;29013;49.676;8.606;2023-02-15T19:11:42;36.38;;;21.13;;
43413;SDS011;29013;49.676;8.606;2023-02-15T19:17:11;38.96;;;21.05;;
43413;SDS011;29013;49.676;8.606;2023-02-15T19:22:36;37.87;;;20.54;;
43413;SDS011;29013;49.676;8.606;2023-02-15T19:27:59;38.78;;;20.26;;
43413;SDS011;29013;49.676;8.606;2023-02-15T19:33:24;37.37;;;20.34;;
43413;SDS011;29013;49.676;8.606;2023-02-15T19:38:47;32.56;;;19.23;;
43413;SDS011;29013;49.676;8.606;2023-02-15T19:44:10;31.9;;;17.99;;
43413;SDS011;29013;49.676;8.606;2023-02-15T19:49:33;34.93;;;18.17;;
43413;SDS011;29013;49.676;8.606;2023-02-15T19:54:56;33.81;;;18.78;;
43413;SDS011;29013;49.676;8.606;2023-02-15T20:00:39;37.2;;;20.97;;
43413;SDS011;29013;49.676;8.606;2023-02-15T20:06:02;35.47;;;20.08;;
43413;SDS011;29013;49.676;8.606;2023-02-15T20:11:22;39.0;;;20.78;;
43413;SDS011;29013;49.676;8.606;2023-02-15T20:16:48;37.27;;;19.59;;
43413;SDS011;29013;49.676;8.606;2023-02-15T20:22:07;37.93;;;20.59;;
43413;SDS011;29013;49.676;8.606;2023-02-15T20:27:27;35.49;;;19.76;;
43413;SDS011;29013;49.676;8.606;2023-02-15T20:32:51;35.2;;;18.65;;
43413;SDS011;29013;49.676;8.606;2023-02-15T20:38:18;38.13;;;19.59;;
43413;SDS011;29013;49.676;8.606;2023-02-15T20:43:36;38.09;;;19.64;;
43413;SDS011;29013;49.676;8.606;2023-02-15T20:49:02;34.66;;;19.48;;
43413;SDS011;29013;49.676;8.606;2023-02-15T20:54:29;37.74;;;18.12;;
43413;SDS011;29013;49.676;8.606;2023-02-15T20:59:46;34.72;;;18.37;;
43413;SDS011;29013;49.676;8.606;2023-02-15T21:05:34;39.16;;;20.78;;
43413;SDS011;29013;49.676;8.606;2023-02-15T21:10:55;46.83;;;22.18;;
43413;SDS011;29013;49.676;8.606;2023-02-15T21:16:20;39.96;;;19.82;;
43413;SDS011;29013;49.676;8.606;2023-02-15T21:21:45;43.92;;;21.13;;
43413;SDS011;29013;49.676;8.606;2023-02-15T21:27:09;41.43;;;20.55;;
43413;SDS011;29013;49.676;8.606;2023-02-15T21:32:30;41.17;;;20.84;;
43413;SDS011;29013;49.676;8.606;2023-02-15T21:37:52;38.23;;;20.33;;
43413;SDS011;29013;49.676;8.606;2023-02-15T21:43:21;52.55;;;20.7;;
43413;SDS011;29013;49.676;8.606;2023-02-15T21:48:37;43.77;;;21.97;;
43413;SDS011;29013;49.676;8.606;2023-02-15T21:54:02;32.98;;;19.68;;
43413;SDS011;29013;49.676;8.606;2023-02-15T21:59:26;39.2;;;19.2;;
43413;SDS011;29013;49.676;8.606;2023-02-15T22:04:50;44.93;;;19.77;;
43413;SDS011;29013;49.676;8.606;2023-02-15T22:10:15;59.15;;;19.38;;
43413;SDS011;29013;49.676;8.606;2023-02-15T22:15:38;35.17;;;18.19;;
43413;SDS011;29013;49.676;8.606;2023-02-15T22:21:02;29.06;;;17.27;;
43413;SDS011;29013;49.676;8.606;2023-02-15T22:26:21;28.99;;;17.49;;
43413;SDS011;29013;49.676;8.606;2023-02-15T22:31:45;29.12;;;16.35;;
43413;SDS011;29013;49.676;8.606;2023-02-15T22:37:30;28.56;;;17.0;;
43413;SDS011;29013;49.676;8.606;2023-02-15T22:42:51;27.49;;;15.99;;
43413;SDS011;29013;49.676;8.606;2023-02-15T22:48:15;25.64;;;15.19;;
43413;SDS011;29013;49.676;8.606;2023-02-15T22:53:36;24.35;;;15.57;;
43413;SDS011;29013;49.676;8.606;2023-02-15T22:58:57;26.51;;;16.62;;
43413;SDS011;29013;49.676;8.606;2023-02-15T23:04:17;27.26;;;16.17;;
43413;SDS011;29013;49.676;8.606;2023-02-15T23:09:38;27.33;;;15.27;;
43413;SDS011;29013;49.676;8.606;2023-02-15T23:15:05;27.69;;;16.08;;
43413;SDS011;29013;49.676;8.606;2023-02-15T23:20:23;50.99;;;19.46;;
43413;SDS011;29013;49.676;8.606;2023-02-15T23:25:42;36.72;;;16.73;;
43413;SDS011;29013;49.676;8.606;2023-02-15T23:31:30;54.17;;;19.39;;
43413;SDS011;29013;49.676;8.606;2023-02-15T23:36:50;48.04;;;17.31;;
43413;SDS011;29013;49.676;8.606;2023-02-15T23:42:10;43.78;;;17.62;;
43413;SDS011;29013;49.676;8.606;2023-02-15T23:47:28;41.89;;;17.56;;
43413;SDS011;29013;49.676;8.606;2023-02-15T23:52:46;46.36;;;19.41;;
43413;SDS011;29013;49.676;8.606;2023-02-15T23:58:23;54.5;;;21.04;;
